Time;durP1;ratioP1;P1;durP2;ratioP2;P2;SDS_P1;SDS_P2;PMS_P1;PMS_P2;Temp;Humidity;BMP_temperature;BMP_pressure;BME280_temperature;BME280_humidity;BME280_pressure;Samples;Min_cycle;Max_cycle;Signal;HPM_P1;HPM_P2
2022/05/18 00:00:53;;;;;;;5.07;4.40;;;15.90;99.90;;;;;;4914462;29;20189;-86
2022/05/18 00:03:23;;;;;;;7.60;4.83;;;15.80;99.90;;;;;;4913201;29;20506;-84
2022/05/18 00:05:48;;;;;;;7.70;4.90;;;15.80;99.90;;;;;;4911140;29;20477;-83
2022/05/18 00:08:15;;;;;;;5.73;4.07;;;15.80;99.90;;;;;;4910455;29;20465;-84
2022/05/18 00:10:44;;;;;;;4.77;4.27;;;15.90;99.90;;;;;;4907777;29;20461;-83
2022/05/18 00:13:09;;;;;;;5.07;3.27;;;15.80;99.90;;;;;;4922584;29;20512;-84
2022/05/18 00:15:36;;;;;;;5.40;3.00;;;15.80;99.90;;;;;;4910915;29;21292;-84
2022/05/18 00:18:02;;;;;;;3.47;3.10;;;15.80;99.90;;;;;;4910361;29;20549;-84
2022/05/18 00:20:28;;;;;;;6.13;3.73;;;15.80;99.90;;;;;;4914999;29;20454;-84
2022/05/18 00:22:56;;;;;;;6.37;3.30;;;15.70;99.90;;;;;;4914737;29;20521;-84
2022/05/18 00:25:29;;;;;;;4.10;3.70;;;15.70;99.90;;;;;;4916042;29;20232;-86
2022/05/18 00:27:55;;;;;;;7.17;3.97;;;15.70;99.90;;;;;;4908328;29;20513;-83
2022/05/18 00:30:23;;;;;;;8.30;4.80;;;15.80;99.90;;;;;;4913788;29;20465;-84
2022/05/18 00:32:49;;;;;;;7.27;3.93;;;15.80;99.90;;;;;;4910151;29;20182;-84
2022/05/18 00:35:16;;;;;;;6.27;4.43;;;15.80;99.90;;;;;;4922525;29;21017;-83
2022/05/18 00:37:42;;;;;;;10.00;4.33;;;15.80;99.90;;;;;;4913165;29;20437;-85
2022/05/18 00:40:11;;;;;;;11.90;4.20;;;15.90;99.90;;;;;;4925034;29;20509;-85
2022/05/18 00:42:37;;;;;;;5.40;3.73;;;16.00;99.90;;;;;;4911626;29;20242;-85
2022/05/18 00:45:03;;;;;;;5.60;4.00;;;16.20;99.90;;;;;;4912539;29;20478;-83
2022/05/18 00:47:29;;;;;;;5.27;3.50;;;16.30;99.90;;;;;;4915368;29;20261;-84
2022/05/18 00:50:08;;;;;;;5.30;3.57;;;16.40;99.90;;;;;;4922252;29;20442;-86
2022/05/18 00:52:42;;;;;;;6.77;3.53;;;16.40;99.90;;;;;;4923805;29;20206;-86
2022/05/18 00:55:12;;;;;;;4.77;3.50;;;16.40;99.90;;;;;;4918937;29;20462;-86
2022/05/18 00:57:56;;;;;;;7.03;3.90;;;16.20;99.90;;;;;;4917075;29;20498;-85
2022/05/18 01:00:23;;;;;;;5.87;3.20;;;16.50;99.90;;;;;;4912211;29;20473;-86
2022/05/18 01:02:54;;;;;;;8.87;3.40;;;16.50;99.90;;;;;;4914452;29;20998;-86
2022/05/18 01:05:28;;;;;;;5.37;4.03;;;16.50;99.90;;;;;;4910808;29;20462;-85
2022/05/18 01:07:57;;;;;;;10.43;5.50;;;16.40;99.90;;;;;;4910842;29;20465;-85
2022/05/18 01:10:22;;;;;;;9.63;5.20;;;16.20;99.90;;;;;;4911894;29;20439;-85
2022/05/18 01:12:48;;;;;;;10.07;5.77;;;15.90;99.90;;;;;;4919628;29;20418;-83
2022/05/18 01:15:16;;;;;;;8.27;6.27;;;15.40;99.90;;;;;;4909018;29;20230;-87
2022/05/18 01:17:45;;;;;;;9.80;6.63;;;15.20;99.90;;;;;;4915929;29;20202;-84
2022/05/18 01:20:14;;;;;;;8.03;6.27;;;14.90;99.90;;;;;;4918473;29;20461;-86
2022/05/18 01:22:58;;;;;;;9.70;6.43;;;14.90;99.90;;;;;;4912255;29;20970;-84
2022/05/18 01:25:32;;;;;;;10.20;6.80;;;14.80;99.90;;;;;;4912610;29;20470;-82
2022/05/18 01:28:00;;;;;;;10.10;7.37;;;14.80;99.90;;;;;;4925166;29;20473;-84
2022/05/18 01:30:29;;;;;;;10.27;7.00;;;14.70;99.90;;;;;;4921172;29;20417;-85
2022/05/18 01:32:57;;;;;;;11.68;7.20;;;14.50;99.90;;;;;;4922019;29;20424;-84
2022/05/18 01:35:27;;;;;;;11.27;7.57;;;14.60;99.90;;;;;;4921582;29;20264;-82
2022/05/18 01:37:59;;;;;;;11.10;6.60;;;14.30;99.90;;;;;;4921502;29;20525;-85
2022/05/18 01:40:44;;;;;;;10.67;6.80;;;14.20;99.90;;;;;;4918223;29;20417;-84
2022/05/18 01:43:27;;;;;;;8.23;5.70;;;14.20;99.90;;;;;;4933392;29;20423;-86
2022/05/18 01:45:55;;;;;;;9.13;5.80;;;14.30;99.90;;;;;;4912487;29;20558;-83
2022/05/18 01:48:26;;;;;;;8.93;5.50;;;14.20;99.90;;;;;;4912313;29;20462;-83
2022/05/18 01:50:52;;;;;;;9.40;5.70;;;14.20;99.90;;;;;;4914752;29;20414;-83
2022/05/18 01:53:19;;;;;;;8.20;6.97;;;14.20;99.90;;;;;;4914484;29;20445;-83
2022/05/18 01:55:45;;;;;;;6.23;5.10;;;;;;;;;;4912796;29;20201;-84
2022/05/18 01:58:13;;;;;;;12.63;5.53;;;14.20;99.90;;;;;;4915123;29;20438;-84
2022/05/18 02:00:39;;;;;;;9.87;6.03;;;14.10;99.90;;;;;;4911585;29;20526;-84
2022/05/18 02:03:05;;;;;;;9.80;6.30;;;14.00;99.90;;;;;;4921268;29;20437;-84
2022/05/18 02:05:30;;;;;;;12.53;6.20;;;14.00;99.90;;;;;;4918455;29;20458;-83
2022/05/18 02:07:57;;;;;;;9.03;5.93;;;13.90;99.90;;;;;;4915109;29;20212;-84
2022/05/18 02:10:23;;;;;;;10.23;5.07;;;13.80;99.90;;;;;;4920631;29;20177;-82
2022/05/18 02:12:49;;;;;;;9.40;6.53;;;13.80;99.90;;;;;;4918511;29;20273;-85
2022/05/18 02:15:14;;;;;;;9.97;6.50;;;14.40;99.90;;;;;;4921015;29;21032;-84
2022/05/18 02:17:41;;;;;;;12.10;6.03;;;13.80;99.90;;;;;;4913746;29;20186;-84
2022/05/18 02:20:07;;;;;;;9.47;6.23;;;13.90;99.90;;;;;;4918555;29;20206;-83
2022/05/18 02:22:33;;;;;;;10.93;8.60;;;13.90;99.90;;;;;;4910904;29;20804;-83
2022/05/18 02:24:59;;;;;;;11.60;8.33;;;13.90;99.90;;;;;;4924964;29;20454;-83
2022/05/18 02:27:24;;;;;;;14.70;7.10;;;13.90;99.90;;;;;;4920711;29;20206;-84
2022/05/18 02:29:50;;;;;;;12.70;8.30;;;13.90;99.90;;;;;;4910552;29;20181;-84
2022/05/18 02:32:17;;;;;;;11.83;8.40;;;13.90;99.90;;;;;;4910207;29;20170;-84
2022/05/18 02:34:43;;;;;;;12.35;8.18;;;13.80;99.90;;;;;;4909049;29;20450;-83
2022/05/18 02:37:08;;;;;;;11.93;8.30;;;13.80;99.90;;;;;;4911769;29;20269;-84
2022/05/18 02:39:34;;;;;;;8.70;6.90;;;13.70;99.90;;;;;;4914254;29;20426;-83
2022/05/18 02:41:59;;;;;;;12.37;8.00;;;13.60;99.90;;;;;;4915359;29;20230;-83
2022/05/18 02:44:25;;;;;;;14.23;8.37;;;13.60;99.90;;;;;;4911034;29;20578;-84
2022/05/18 02:46:54;;;;;;;12.73;8.53;;;13.60;99.90;;;;;;4911213;29;20193;-83
2022/05/18 02:49:20;;;;;;;11.73;8.00;;;13.50;99.90;;;;;;4923292;29;20197;-85
2022/05/18 02:51:46;;;;;;;18.57;6.77;;;;;;;;;;4907418;29;20190;-85
2022/05/18 02:56:55;;;;;;;8.02;5.90;;;13.60;99.90;;;;;;4909548;29;20424;-83
2022/05/18 02:59:21;;;;;;;13.73;8.20;;;13.50;99.90;;;;;;4915399;29;20202;-84
2022/05/18 03:01:48;;;;;;;15.70;8.20;;;13.50;99.90;;;;;;4910486;29;20195;-86
2022/05/18 03:04:14;;;;;;;13.73;8.27;;;13.50;99.90;;;;;;4912813;29;20185;-84
2022/05/18 03:06:40;;;;;;;11.23;7.30;;;13.50;99.90;;;;;;4916259;29;20460;-85
2022/05/18 03:09:06;;;;;;;12.05;7.75;;;13.50;99.90;;;;;;4914782;29;20214;-84
2022/05/18 03:11:32;;;;;;;13.15;8.20;;;13.60;99.90;;;;;;4914993;29;20209;-85
2022/05/18 03:13:57;;;;;;;10.70;8.53;;;13.60;99.90;;;;;;4917679;29;20192;-84
2022/05/18 03:16:26;;;;;;;8.70;7.00;;;13.60;99.90;;;;;;4919965;29;20205;-85
2022/05/18 03:18:51;;;;;;;17.65;8.38;;;13.50;99.90;;;;;;4912924;29;20206;-83
2022/05/18 03:24:02;;;;;;;13.00;8.07;;;13.60;99.90;;;;;;4912008;29;20735;-83
2022/05/18 03:26:27;;;;;;;14.65;8.45;;;13.50;99.90;;;;;;4912600;29;20266;-83
2022/05/18 03:28:55;;;;;;;15.67;8.77;;;13.60;99.90;;;;;;4912445;29;20312;-85
2022/05/18 03:31:21;;;;;;;14.23;8.98;;;13.60;99.90;;;;;;4912356;29;21981;-83
2022/05/18 03:33:47;;;;;;;16.02;9.02;;;13.60;99.90;;;;;;4913002;29;20189;-84
2022/05/18 03:36:15;;;;;;;12.73;7.60;;;13.70;99.90;;;;;;4926895;29;20210;-83
2022/05/18 03:38:42;;;;;;;16.63;10.77;;;13.70;99.90;;;;;;4917951;29;20438;-85
2022/05/18 03:41:08;;;;;;;9.48;7.93;;;15.40;99.90;;;;;;4913965;29;20190;-84
2022/05/18 03:43:34;;;;;;;12.83;9.90;;;13.50;99.90;;;;;;4917596;29;20631;-84
2022/05/18 03:46:00;;;;;;;13.73;7.97;;;13.40;99.90;;;;;;4909707;29;20457;-83
2022/05/18 03:48:26;;;;;;;13.17;9.30;;;13.30;99.90;;;;;;4915396;29;20204;-85
2022/05/18 03:50:53;;;;;;;12.98;8.30;;;13.20;99.90;;;;;;4919955;29;20185;-85
2022/05/18 03:53:19;;;;;;;14.10;8.45;;;13.10;99.90;;;;;;4917755;29;20183;-85
2022/05/18 03:55:45;;;;;;;14.07;8.37;;;13.10;99.90;;;;;;4913675;29;20221;-85
2022/05/18 03:58:12;;;;;;;13.23;8.30;;;13.10;99.90;;;;;;4912708;29;20457;-86
2022/05/18 04:00:40;;;;;;;10.60;7.90;;;13.00;99.90;;;;;;4915167;29;20178;-85
2022/05/18 04:03:07;;;;;;;13.25;8.30;;;13.10;99.90;;;;;;4914008;29;20250;-86
2022/05/18 04:05:33;;;;;;;7.80;6.20;;;13.10;99.90;;;;;;4912300;29;20202;-84
2022/05/18 04:08:00;;;;;;;12.17;6.90;;;13.30;99.90;;;;;;4925138;29;20217;-86
2022/05/18 04:10:25;;;;;;;9.73;7.72;;;13.50;99.90;;;;;;4914836;29;20182;-83
2022/05/18 04:12:51;;;;;;;8.50;7.60;;;13.70;99.90;;;;;;4907489;29;20201;-82
2022/05/18 04:15:17;;;;;;;8.40;7.60;;;13.70;99.90;;;;;;4905769;29;20233;-82
2022/05/18 04:17:45;;;;;;;11.60;7.60;;;13.70;99.90;;;;;;4909075;29;20190;-82
2022/05/18 04:20:17;;;;;;;15.23;6.90;;;13.70;99.90;;;;;;4914936;29;20449;-87
2022/05/18 04:22:44;;;;;;;11.13;6.50;;;13.80;99.90;;;;;;4936749;29;20553;-89
2022/05/18 04:25:11;;;;;;;13.32;7.25;;;14.00;99.90;;;;;;4933182;29;20289;-87
2022/05/18 04:27:36;;;;;;;12.18;7.78;;;14.40;99.90;;;;;;4913915;29;20218;-86
2022/05/18 04:30:03;;;;;;;9.57;6.20;;;15.60;99.90;;;;;;4920248;29;20197;-85
2022/05/18 04:32:28;;;;;;;11.60;6.03;;;17.00;99.90;;;;;;4924637;29;20178;-86
2022/05/18 04:34:54;;;;;;;8.47;5.33;;;18.20;99.90;;;;;;4924009;29;20462;-85
2022/05/18 04:37:20;;;;;;;7.37;6.03;;;19.60;99.90;;;;;;4927188;29;20193;-84
2022/05/18 04:39:46;;;;;;;7.17;5.83;;;;;;;;;;4926375;29;20217;-88
2022/05/18 04:42:12;;;;;;;9.07;6.10;;;23.20;99.90;;;;;;4942586;29;20249;-85
2022/05/18 04:44:38;;;;;;;7.20;5.40;;;;;;;;;;4930193;29;20450;-87
2022/05/18 04:47:04;;;;;;;7.10;4.80;;;26.60;99.90;;;;;;4914339;29;20438;-86
2022/05/18 04:49:32;;;;;;;7.73;5.40;;;;;;;;;;4903906;29;20525;-84
2022/05/18 04:52:03;;;;;;;7.10;5.50;;;28.40;98.40;;;;;;4917478;29;20439;-82
2022/05/18 04:54:29;;;;;;;6.10;5.50;;;28.20;97.00;;;;;;4905551;29;20519;-84
2022/05/18 04:56:55;;;;;;;7.40;6.30;;;;;;;;;;4904140;29;20522;-83
2022/05/18 04:59:20;;;;;;;9.30;6.27;;;28.60;96.30;;;;;;4920294;29;20188;-86
2022/05/18 05:01:46;;;;;;;9.20;5.40;;;28.70;94.90;;;;;;4908900;29;20448;-86
2022/05/18 05:04:13;;;;;;;14.27;5.97;;;29.10;95.00;;;;;;4908216;29;20591;-84
2022/05/18 05:06:40;;;;;;;10.47;5.10;;;28.80;93.30;;;;;;4912341;29;20229;-84
2022/05/18 05:09:07;;;;;;;8.30;6.10;;;28.70;93.60;;;;;;4908605;29;20503;-86
2022/05/18 05:11:32;;;;;;;9.93;6.93;;;28.30;92.20;;;;;;4913035;29;20446;-86
2022/05/18 05:13:58;;;;;;;7.17;6.47;;;28.40;93.20;;;;;;4912422;29;20435;-86
2022/05/18 05:16:26;;;;;;;8.97;5.80;;;;;;;;;;4912612;29;20283;-86
2022/05/18 05:18:52;;;;;;;7.53;5.50;;;26.80;94.40;;;;;;4919845;29;20191;-86
2022/05/18 05:21:17;;;;;;;10.73;6.50;;;27.00;93.70;;;;;;4909170;29;20978;-85
2022/05/18 05:23:43;;;;;;;7.70;6.00;;;28.00;94.20;;;;;;4904935;29;20185;-86
2022/05/18 05:26:08;;;;;;;8.33;5.47;;;29.10;92.50;;;;;;4905051;29;20213;-86
2022/05/18 05:28:34;;;;;;;7.10;6.17;;;29.50;92.00;;;;;;4905423;29;20229;-87
2022/05/18 05:31:05;;;;;;;8.20;5.40;;;30.40;90.30;;;;;;4906205;29;20215;-87
2022/05/18 05:33:31;;;;;;;7.07;5.73;;;30.80;86.40;;;;;;4905567;29;20198;-86
2022/05/18 05:35:58;;;;;;;7.17;5.97;;;30.50;85.50;;;;;;4905880;29;20527;-87
2022/05/18 05:38:24;;;;;;;6.93;6.33;;;;;;;;;;4904475;29;20457;-87
2022/05/18 05:40:50;;;;;;;8.10;7.13;;;31.30;84.80;;;;;;4919440;29;20938;-84
2022/05/18 05:43:15;;;;;;;7.27;5.97;;;32.60;80.50;;;;;;4902668;29;20447;-86
2022/05/18 05:45:41;;;;;;;13.10;5.90;;;;;;;;;;4918355;29;20207;-86
2022/05/18 05:48:10;;;;;;;8.13;7.30;;;36.00;67.60;;;;;;4907100;29;20213;-85
2022/05/18 05:50:37;;;;;;;9.13;8.27;;;;;;;;;;4904742;29;20435;-85
2022/05/18 05:53:03;;;;;;;10.57;9.77;;;;;;;;;;4918351;29;20417;-85
2022/05/18 05:55:29;;;;;;;10.97;9.90;;;;;;;;;;4917917;29;20483;-85
2022/05/18 05:57:55;;;;;;;12.03;10.83;;;39.10;54.40;;;;;;4917582;29;20436;-85
2022/05/18 06:00:22;;;;;;;12.30;11.20;;;39.50;51.80;;;;;;4901410;29;20437;-82
2022/05/18 06:02:48;;;;;;;13.40;12.43;;;;;;;;;;4903947;29;20450;-84
2022/05/18 06:05:14;;;;;;;13.20;12.30;;;38.80;49.90;;;;;;4917735;29;20476;-86
2022/05/18 06:07:40;;;;;;;13.70;12.70;;;;;;;;;;4904702;29;20465;-87
2022/05/18 06:10:06;;;;;;;12.70;11.63;;;38.10;51.00;;;;;;4918348;29;20283;-86
2022/05/18 06:12:32;;;;;;;13.87;12.87;;;37.80;51.70;;;;;;4901728;29;20507;-88
2022/05/18 06:14:59;;;;;;;13.90;12.90;;;36.80;52.10;;;;;;4909345;29;20259;-84
2022/05/18 06:17:24;;;;;;;12.57;11.57;;;37.00;52.60;;;;;;4908311;29;20500;-86
2022/05/18 06:19:50;;;;;;;12.23;11.23;;;;;;;;;;4904445;29;20456;-86
2022/05/18 06:22:16;;;;;;;13.20;12.20;;;35.60;54.60;;;;;;4917817;29;20281;-86
2022/05/18 06:24:42;;;;;;;12.90;11.70;;;;;;;;;;4903964;29;20480;-84
2022/05/18 06:27:08;;;;;;;12.07;11.37;;;38.80;51.10;;;;;;4918724;29;20185;-84
2022/05/18 06:29:35;;;;;;;13.13;12.00;;;39.60;50.90;;;;;;4907568;29;21022;-86
2022/05/18 06:32:00;;;;;;;11.70;11.10;;;;;;;;;;4902787;29;20505;-87
2022/05/18 06:34:26;;;;;;;11.63;10.83;;;;;;;;;;4903155;29;20489;-84
2022/05/18 06:36:52;;;;;;;14.10;13.00;;;;;;;;;;4917493;29;20446;-86
2022/05/18 06:39:19;;;;;;;12.50;11.70;;;42.10;40.00;;;;;;4902078;29;20185;-86
2022/05/18 06:41:46;;;;;;;10.60;9.70;;;42.60;40.90;;;;;;4901917;29;20433;-85
2022/05/18 06:44:13;;;;;;;9.13;8.53;;;;;;;;;;4905056;29;20438;-85
2022/05/18 06:46:39;;;;;;;11.17;10.40;;;43.50;38.70;;;;;;4919889;29;20816;-85
2022/05/18 06:49:06;;;;;;;13.83;12.87;;;41.20;37.20;;;;;;4901446;29;20473;-84
2022/05/18 06:51:34;;;;;;;12.20;11.40;;;36.70;41.40;;;;;;4919333;29;20505;-85
2022/05/18 06:54:00;;;;;;;10.67;9.97;;;33.20;46.00;;;;;;4902900;29;21009;-85
2022/05/18 06:56:28;;;;;;;8.87;8.40;;;33.10;47.90;;;;;;4905169;29;20467;-85
2022/05/18 06:58:54;;;;;;;9.93;9.13;;;34.10;49.30;;;;;;4904455;29;20235;-86
2022/05/18 07:01:20;;;;;;;10.37;9.67;;;36.20;47.50;;;;;;4902947;29;20472;-85
2022/05/18 07:03:46;;;;;;;11.80;10.77;;;37.00;46.00;;;;;;4910750;29;20460;-85
2022/05/18 07:06:13;;;;;;;12.27;11.37;;;37.80;45.50;;;;;;4905171;29;20287;-84
2022/05/18 07:08:39;;;;;;;11.60;10.80;;;37.10;45.80;;;;;;4903861;29;20463;-86
2022/05/18 07:11:06;;;;;;;13.17;12.03;;;36.80;46.50;;;;;;4904450;29;20464;-87
2022/05/18 07:13:33;;;;;;;12.27;11.50;;;36.70;45.60;;;;;;4913288;29;20979;-86
2022/05/18 07:15:59;;;;;;;14.97;13.50;;;36.20;46.30;;;;;;4914635;29;20570;-87
2022/05/18 07:18:30;;;;;;;12.53;11.43;;;35.50;46.20;;;;;;4905222;29;20450;-87
2022/05/18 07:20:57;;;;;;;12.37;11.47;;;34.70;47.00;;;;;;4912916;29;20475;-87
2022/05/18 07:23:25;;;;;;;12.27;10.83;;;34.10;48.80;;;;;;4912329;29;20447;-84
2022/05/18 07:25:51;;;;;;;10.87;10.17;;;34.10;49.80;;;;;;4905763;29;21184;-84
2022/05/18 07:28:17;;;;;;;15.80;10.30;;;34.20;50.50;;;;;;4910943;29;20683;-84
2022/05/18 07:30:42;;;;;;;10.47;9.77;;;33.80;50.40;;;;;;4913857;29;20453;-85
2022/05/18 07:33:08;;;;;;;10.67;10.00;;;33.70;51.10;;;;;;4911026;29;20241;-86
2022/05/18 07:35:34;;;;;;;10.00;9.30;;;34.20;50.00;;;;;;4905654;29;20684;-87
2022/05/18 07:38:00;;;;;;;9.90;9.30;;;34.00;49.40;;;;;;4906491;29;20688;-84
2022/05/18 07:40:25;;;;;;;9.87;9.27;;;33.70;51.80;;;;;;4911655;29;20197;-85
2022/05/18 07:42:54;;;;;;;10.47;9.53;;;34.40;50.40;;;;;;4903774;29;22893;-85
2022/05/18 07:45:21;;;;;;;9.50;9.00;;;34.60;50.80;;;;;;4903344;29;20198;-85
2022/05/18 07:47:47;;;;;;;11.17;10.37;;;34.90;50.20;;;;;;4902099;29;20466;-86
2022/05/18 07:50:13;;;;;;;9.33;8.83;;;35.00;48.90;;;;;;4912498;29;20436;-85
2022/05/18 07:52:39;;;;;;;10.47;9.57;;;34.20;49.10;;;;;;4907594;29;20171;-86
2022/05/18 07:55:05;;;;;;;9.90;9.10;;;34.00;50.50;;;;;;4917202;29;21000;-88
2022/05/18 07:57:31;;;;;;;10.70;9.93;;;33.90;50.90;;;;;;4906452;29;20676;-87
2022/05/18 07:59:59;;;;;;;11.03;10.03;;;34.10;50.40;;;;;;4922507;29;20235;-86
2022/05/18 08:02:29;;;;;;;11.93;10.97;;;33.90;50.40;;;;;;4906555;29;20215;-86
2022/05/18 08:04:55;;;;;;;9.83;9.00;;;34.20;50.40;;;;;;4907713;29;20882;-86
2022/05/18 08:07:20;;;;;;;9.80;9.00;;;;;;;;;;4916164;29;20456;-86
2022/05/18 08:15:16;;;;;;;10.17;9.37;;;34.40;48.70;;;;;;4907331;29;20459;-86
2022/05/18 08:17:43;;;;;;;9.27;8.47;;;34.90;49.00;;;;;;4910129;29;20524;-86
2022/05/18 08:20:13;;;;;;;11.00;10.13;;;34.90;48.10;;;;;;4909642;29;20501;-88
2022/05/18 08:22:39;;;;;;;9.77;9.17;;;34.70;48.30;;;;;;4909367;29;20454;-86
2022/05/18 08:25:05;;;;;;;11.00;10.20;;;35.00;47.90;;;;;;4909817;29;20476;-84
2022/05/18 08:27:30;;;;;;;11.17;10.27;;;35.30;47.20;;;;;;4907015;29;20203;-85
2022/05/18 08:30:06;;;;;;;10.20;9.60;;;35.10;47.70;;;;;;4913532;29;20445;-85
2022/05/18 08:32:32;;;;;;;11.07;10.00;;;;;;;;;;4911210;29;20182;-85
2022/05/18 08:34:58;;;;;;;11.37;10.23;;;35.00;46.80;;;;;;4922656;29;20467;-86
2022/05/18 08:37:24;;;;;;;11.50;10.70;;;34.70;49.10;;;;;;4916076;29;20489;-85
2022/05/18 08:39:51;;;;;;;19.90;12.90;;;34.40;47.60;;;;;;4908244;29;20209;-84
2022/05/18 08:42:18;;;;;;;12.53;11.03;;;34.40;47.50;;;;;;4905139;29;20452;-86
2022/05/18 08:44:43;;;;;;;11.67;10.80;;;34.60;48.40;;;;;;4906988;29;20514;-84
2022/05/18 08:47:33;;;;;;;11.03;10.20;;;35.10;48.70;;;;;;4911376;29;20441;-87
2022/05/18 08:50:07;;;;;;;11.43;10.63;;;35.10;48.70;;;;;;4907570;29;20720;-85
2022/05/18 08:52:48;;;;;;;11.20;10.17;;;34.10;47.80;;;;;;4907177;29;20433;-85
2022/05/18 08:55:43;;;;;;;10.10;9.20;;;33.00;50.30;;;;;;4923348;29;20451;-86
2022/05/18 08:58:48;;;;;;;10.90;10.17;;;34.00;48.50;;;;;;4912919;29;20815;-86
2022/05/18 09:01:25;;;;;;;11.20;10.10;;;34.00;48.80;;;;;;4897787;29;21040;-86
2022/05/18 09:03:57;;;;;;;10.97;10.07;;;35.00;48.10;;;;;;4916121;29;20498;-83
2022/05/18 09:06:47;;;;;;;11.00;10.23;;;35.00;47.20;;;;;;4922611;29;20468;-86
2022/05/18 09:12:10;;;;;;;12.27;11.20;;;35.30;47.90;;;;;;4906388;29;20594;-83
2022/05/18 09:14:38;;;;;;;12.00;10.93;;;36.60;45.50;;;;;;4905602;29;20439;-85
2022/05/18 09:17:47;;;;;;;13.57;12.33;;;37.00;43.60;;;;;;4906487;29;20177;-88
2022/05/18 09:20:20;;;;;;;12.50;11.70;;;37.00;44.30;;;;;;4881321;29;20458;-86
2022/05/18 09:23:05;;;;;;;11.60;10.93;;;36.80;44.10;;;;;;4917956;29;21026;-85
2022/05/18 09:26:02;;;;;;;12.20;11.57;;;36.90;44.50;;;;;;4909967;29;20467;-86
2022/05/18 09:28:46;;;;;;;13.50;12.70;;;36.50;44.50;;;;;;4922757;29;20469;-84
2022/05/18 09:31:21;;;;;;;14.50;13.50;;;35.40;44.80;;;;;;4907452;29;20515;-87
2022/05/18 09:34:05;;;;;;;10.87;10.37;;;35.60;44.40;;;;;;4925230;29;20471;-86
2022/05/18 09:37:14;;;;;;;11.63;10.83;;;35.70;44.20;;;;;;4907653;29;20460;-86
2022/05/18 09:39:45;;;;;;;11.73;11.07;;;35.90;45.20;;;;;;4923454;29;20533;-86
2022/05/18 09:42:15;;;;;;;12.43;11.20;;;35.90;44.60;;;;;;4906628;29;20879;-87
2022/05/18 09:45:02;;;;;;;12.53;11.70;;;35.90;42.90;;;;;;4906793;29;20454;-86
2022/05/18 09:47:35;;;;;;;14.03;12.97;;;35.90;43.90;;;;;;4913765;29;20497;-86
2022/05/18 09:50:06;;;;;;;14.30;13.33;;;35.80;42.40;;;;;;4923957;29;20443;-86
2022/05/18 09:52:32;;;;;;;13.60;12.50;;;35.60;42.10;;;;;;4906751;29;20443;-83
2022/05/18 09:55:00;;;;;;;13.47;12.67;;;35.50;42.80;;;;;;4907586;29;20462;-84
2022/05/18 09:57:28;;;;;;;12.53;11.77;;;35.50;44.60;;;;;;4907344;29;20536;-84
2022/05/18 09:59:59;;;;;;;12.03;11.03;;;34.90;45.40;;;;;;4921814;29;20596;-86
2022/05/18 10:08:10;;;;;;;12.83;11.43;;;33.10;44.60;;;;;;4905063;29;20557;-86
2022/05/18 10:10:40;;;;;;;12.23;11.00;;;33.10;46.40;;;;;;4906825;29;21310;-83
2022/05/18 10:13:11;;;;;;;11.33;10.57;;;33.60;47.40;;;;;;4907896;29;20423;-83
2022/05/18 10:15:41;;;;;;;10.90;9.97;;;33.60;46.80;;;;;;4913592;29;20459;-84
2022/05/18 10:18:35;;;;;;;10.03;9.00;;;34.20;47.70;;;;;;4906949;29;20428;-86
2022/05/18 10:21:00;;;;;;;10.60;9.83;;;;;;;;;;4914353;29;20460;-87
2022/05/18 10:23:34;;;;;;;12.40;10.47;;;35.40;43.00;;;;;;4909077;29;20439;-85
2022/05/18 10:26:01;;;;;;;10.43;9.90;;;34.90;43.60;;;;;;4915760;29;20463;-85
2022/05/18 10:28:29;;;;;;;11.33;10.30;;;34.00;44.70;;;;;;4907960;29;20844;-88
2022/05/18 10:30:55;;;;;;;9.70;9.00;;;32.40;46.60;;;;;;4908588;29;20489;-86
2022/05/18 10:33:23;;;;;;;8.80;8.20;;;31.20;45.00;;;;;;4907084;29;20430;-87
2022/05/18 10:35:51;;;;;;;8.43;7.80;;;30.20;48.00;;;;;;4910265;29;20212;-85
2022/05/18 10:38:24;;;;;;;7.73;7.27;;;29.40;48.70;;;;;;4915458;29;20845;-85
2022/05/18 10:41:04;;;;;;;9.50;6.73;;;28.80;48.80;;;;;;4909419;29;20502;-84
2022/05/18 10:43:39;;;;;;;7.77;7.27;;;28.60;52.10;;;;;;4909340;29;20434;-84
2022/05/18 10:46:16;;;;;;;6.63;6.00;;;28.40;52.00;;;;;;4932727;23;20510;-84
2022/05/18 10:48:55;;;;;;;6.23;5.83;;;28.40;52.40;;;;;;4935699;28;20499;-84
2022/05/18 10:51:43;;;;;;;5.70;5.40;;;28.40;50.30;;;;;;4935131;28;20466;-85
2022/05/18 10:54:21;;;;;;;5.33;4.83;;;28.20;51.60;;;;;;4928399;29;20446;-85
2022/05/18 10:56:47;;;;;;;6.50;6.00;;;28.30;50.40;;;;;;4930306;29;20923;-82
2022/05/18 10:59:42;;;;;;;6.33;5.80;;;28.30;51.10;;;;;;4929186;29;20441;-85
2022/05/18 11:02:21;;;;;;;10.30;6.70;;;28.10;51.30;;;;;;4946403;28;20515;-84
2022/05/18 11:05:21;;;;;;;6.20;5.70;;;28.20;52.30;;;;;;4929846;29;20429;-85
2022/05/18 11:07:46;;;;;;;7.00;5.37;;;28.00;51.60;;;;;;4877995;29;20472;-85
2022/05/18 11:10:13;;;;;;;7.57;6.87;;;27.90;49.70;;;;;;4939860;29;20448;-83
2022/05/18 11:12:51;;;;;;;8.40;6.30;;;28.00;50.70;;;;;;4930147;29;20204;-85
2022/05/18 11:15:38;;;;;;;8.20;7.47;;;27.90;50.60;;;;;;4928054;29;21039;-85
2022/05/18 11:18:38;;;;;;;6.60;6.10;;;28.00;51.40;;;;;;4929392;29;20460;-83
2022/05/18 11:21:28;;;;;;;6.10;5.63;;;28.00;52.80;;;;;;4927770;29;20464;-84
2022/05/18 11:24:25;;;;;;;7.10;6.63;;;27.90;50.20;;;;;;4929673;29;20952;-85
2022/05/18 11:27:25;;;;;;;5.90;5.50;;;27.90;51.10;;;;;;4931713;29;20495;-85
2022/05/18 11:29:57;;;;;;;6.23;5.87;;;27.90;51.70;;;;;;4934540;29;20444;-82
2022/05/18 11:32:45;;;;;;;6.50;5.90;;;28.00;51.70;;;;;;4936280;29;20423;-82
2022/05/18 11:35:24;;;;;;;7.20;6.50;;;28.00;54.80;;;;;;4929794;29;20865;-85
2022/05/18 11:37:55;;;;;;;6.57;6.07;;;28.40;52.70;;;;;;4931198;29;20552;-84
2022/05/18 11:40:46;;;;;;;6.93;6.33;;;28.50;52.10;;;;;;4934122;29;20883;-84
2022/05/18 11:43:30;;;;;;;6.60;6.00;;;28.30;51.00;;;;;;4934111;29;20923;-84
2022/05/18 11:46:39;;;;;;;6.53;5.83;;;28.40;51.10;;;;;;4963476;28;20479;-82
2022/05/18 11:49:24;;;;;;;6.00;5.60;;;28.40;52.10;;;;;;4934668;29;20465;-90
2022/05/18 11:51:59;;;;;;;6.87;6.37;;;28.40;52.80;;;;;;4930817;29;21006;-88
2022/05/18 11:54:46;;;;;;;6.57;6.13;;;28.50;50.50;;;;;;4924027;29;20492;-89
2022/05/18 11:57:32;;;;;;;7.40;6.47;;;28.40;52.00;;;;;;4931723;29;20514;-89
2022/05/18 12:00:15;;;;;;;7.77;6.30;;;28.50;51.00;;;;;;4931207;29;20445;-90
2022/05/18 12:03:10;;;;;;;6.07;5.50;;;28.50;51.50;;;;;;4947787;28;21058;-90
2022/05/18 12:05:54;;;;;;;6.90;6.30;;;28.60;54.10;;;;;;4921384;29;20527;-91
2022/05/18 12:08:44;;;;;;;7.83;6.20;;;28.80;51.50;;;;;;4924208;29;20469;-90
2022/05/18 12:11:39;;;;;;;6.23;5.73;;;28.90;51.30;;;;;;4929727;29;20455;-90
2022/05/18 12:14:20;;;;;;;7.30;6.47;;;29.00;50.60;;;;;;4945303;28;20607;-90
2022/05/18 12:16:54;;;;;;;10.50;6.97;;;29.00;51.10;;;;;;4947091;28;20472;-90
2022/05/18 12:19:28;;;;;;;6.83;6.33;;;28.70;50.80;;;;;;4930006;29;20512;-90
2022/05/18 12:21:58;;;;;;;6.00;5.60;;;28.60;50.20;;;;;;4930771;29;20514;-89
2022/05/18 12:24:25;;;;;;;7.10;6.70;;;28.60;50.40;;;;;;4947305;28;20443;-90
2022/05/18 12:26:53;;;;;;;5.90;5.50;;;28.60;50.20;;;;;;4947120;28;20429;-90
2022/05/18 12:29:23;;;;;;;6.37;5.67;;;28.40;48.30;;;;;;4944724;23;20457;-82
2022/05/18 12:31:51;;;;;;;6.00;5.60;;;31.20;50.60;;;;;;4943664;29;20437;-84
2022/05/18 12:34:33;;;;;;;6.50;5.90;;;28.30;49.60;;;;;;4934468;29;20464;-85
2022/05/18 12:37:33;;;;;;;6.37;5.83;;;28.10;49.60;;;;;;4932128;29;20453;-84
2022/05/18 12:40:14;;;;;;;5.23;4.93;;;28.40;51.00;;;;;;4925752;29;20439;-82
2022/05/18 12:42:48;;;;;;;6.27;5.77;;;28.60;50.40;;;;;;4924979;29;20497;-84
2022/05/18 12:45:29;;;;;;;5.93;5.53;;;28.60;49.50;;;;;;4935353;29;20450;-83
2022/05/18 12:48:30;;;;;;;6.10;5.70;;;28.70;49.20;;;;;;4932996;29;20472;-85
2022/05/18 12:51:05;;;;;;;6.17;5.57;;;28.80;49.50;;;;;;4931857;29;20551;-86
2022/05/18 12:53:55;;;;;;;6.40;5.80;;;28.90;49.60;;;;;;4931951;29;20917;-83
2022/05/18 12:56:45;;;;;;;5.93;5.43;;;29.10;49.50;;;;;;4932507;29;20450;-83
2022/05/18 12:59:15;;;;;;;6.30;5.90;;;29.00;47.90;;;;;;4937563;29;20429;-86
2022/05/18 13:01:43;;;;;;;7.50;6.80;;;29.00;48.40;;;;;;4935784;29;20478;-84
2022/05/18 13:04:09;;;;;;;11.60;6.37;;;29.00;48.40;;;;;;4934826;29;20474;-84
2022/05/18 13:06:55;;;;;;;7.87;7.37;;;29.20;49.40;;;;;;4935256;29;20433;-83
2022/05/18 13:09:29;;;;;;;6.57;6.07;;;29.30;47.80;;;;;;4956280;28;20242;-84
2022/05/18 13:12:27;;;;;;;6.30;5.93;;;29.20;46.10;;;;;;4948398;29;20441;-83
2022/05/18 13:15:04;;;;;;;7.20;6.70;;;29.20;47.20;;;;;;4954980;28;20437;-86
2022/05/18 13:18:10;;;;;;;11.03;6.60;;;29.20;47.20;;;;;;4936889;29;20458;-85
2022/05/18 13:20:41;;;;;;;6.67;6.23;;;29.10;48.10;;;;;;4937711;29;20455;-82
2022/05/18 13:23:24;;;;;;;8.10;6.20;;;29.00;47.80;;;;;;4932015;29;20443;-85
2022/05/18 13:25:55;;;;;;;6.67;6.17;;;29.00;48.20;;;;;;4957463;28;20446;-83